createdAt,value
2019-05-19T06:47:06.472Z,18.67
2019-05-19T06:52:31.622Z,16.90
2019-05-19T06:57:56.114Z,18.87
2019-05-19T07:03:20.977Z,19.82
2019-05-19T07:08:45.985Z,17.70
2019-05-19T07:14:09.703Z,19.27
2019-05-19T07:19:34.171Z,16.57
2019-05-19T07:24:58.626Z,19.75
2019-05-19T07:30:22.549Z,14.65
2019-05-19T07:35:47.278Z,15.23
2019-05-19T07:41:11.884Z,16.57
2019-05-19T07:46:36.495Z,14.18
2019-05-19T07:52:01.011Z,17.92
2019-05-19T07:57:24.667Z,16.37
2019-05-19T08:02:48.623Z,12.28
2019-05-19T08:08:13.130Z,11.83
2019-05-19T08:13:37.915Z,14.87
2019-05-19T08:19:02.978Z,12.70
2019-05-19T08:24:27.794Z,16.25
2019-05-19T08:29:51.734Z,12.47
2019-05-19T08:35:15.515Z,10.58
2019-05-19T08:40:40.456Z,13.98
2019-05-19T08:46:04.957Z,10.80
2019-05-19T08:51:29.431Z,14.73
2019-05-19T08:56:53.408Z,13.65
2019-05-19T09:02:17.828Z,12.47
2019-05-19T09:07:42.559Z,10.35
2019-05-19T09:13:07.731Z,9.68
2019-05-19T09:18:32.314Z,10.45
2019-05-19T09:23:56.854Z,11.08
2019-05-19T09:29:21.967Z,11.50
2019-05-19T09:34:45.725Z,10.38
2019-05-19T09:40:10.786Z,10.08
2019-05-19T09:45:35.451Z,8.63
2019-05-19T09:50:59.661Z,9.43
2019-05-19T09:56:24.320Z,15.35
2019-05-19T10:01:49.031Z,10.30
2019-05-19T10:07:13.638Z,10.10
2019-05-19T10:12:37.742Z,11.78
2019-05-19T10:18:02.290Z,12.00
2019-05-19T10:23:26.670Z,9.73
2019-05-19T10:28:51.194Z,12.88
2019-05-19T10:34:15.684Z,9.33
2019-05-19T10:39:39.643Z,7.55
2019-05-19T10:45:04.592Z,10.90
2019-05-19T10:50:28.241Z,8.95
2019-05-19T10:55:52.511Z,11.43
2019-05-19T11:01:17.237Z,8.80
2019-05-19T11:06:40.936Z,9.45
2019-05-19T11:12:05.611Z,11.15
2019-05-19T11:17:29.537Z,10.20
2019-05-19T11:22:53.518Z,11.75
2019-05-19T11:28:17.268Z,9.18
2019-05-19T11:33:41.874Z,9.95
2019-05-19T11:39:07.719Z,11.33
2019-05-19T11:44:31.937Z,12.40
2019-05-19T11:49:56.684Z,9.35
2019-05-19T11:55:21.032Z,11.78
2019-05-19T12:00:45.135Z,10.05
2019-05-19T12:06:09.902Z,10.68
2019-05-19T12:11:34.208Z,16.23
2019-05-19T12:16:58.569Z,10.60
2019-05-19T12:22:23.448Z,11.18
2019-05-19T12:27:48.357Z,11.03
2019-05-19T12:33:13.042Z,10.15
2019-05-19T12:38:37.757Z,11.30
2019-05-19T12:44:02.574Z,10.05
2019-05-19T12:49:27.235Z,12.43
2019-05-19T12:54:51.088Z,11.35
2019-05-19T13:00:15.187Z,11.33
2019-05-19T13:05:39.886Z,11.03
2019-05-19T13:11:03.800Z,10.30
2019-05-19T13:16:28.671Z,10.78
2019-05-19T13:21:53.549Z,10.75
2019-05-19T13:27:17.852Z,10.00
2019-05-19T13:32:42.569Z,10.15
2019-05-19T13:38:07.022Z,11.10
2019-05-19T13:43:31.897Z,9.48
2019-05-19T13:48:56.376Z,11.45
2019-05-19T13:54:20.805Z,13.43
2019-05-19T13:59:45.377Z,11.90
2019-05-19T14:05:10.415Z,9.73
2019-05-19T14:10:34.987Z,14.18
2019-05-19T14:15:59.486Z,9.60
2019-05-19T14:21:24.063Z,13.58
2019-05-19T14:26:47.823Z,10.70
2019-05-19T14:32:11.823Z,16.57
2019-05-19T14:37:36.519Z,17.00
2019-05-19T14:43:02.223Z,19.52
2019-05-19T14:48:26.940Z,23.50
2019-05-19T14:53:50.958Z,29.20
2019-05-19T14:59:14.852Z,24.55
2019-05-19T15:04:38.695Z,28.52
2019-05-19T15:10:03.301Z,23.60
2019-05-19T15:15:27.374Z,23.50
2019-05-19T15:20:51.139Z,22.27
2019-05-19T15:26:14.851Z,18.48
2019-05-19T15:31:38.804Z,16.05
2019-05-19T15:37:03.620Z,17.15
2019-05-19T15:42:28.013Z,17.80
2019-05-19T15:47:52.726Z,16.30
2019-05-19T15:53:17.462Z,19.42
2019-05-19T15:58:42.356Z,18.65
2019-05-19T16:04:06.866Z,16.77
2019-05-19T16:09:31.484Z,17.90
2019-05-19T16:14:56.449Z,16.75
2019-05-19T16:20:20.824Z,15.70
2019-05-19T16:25:44.799Z,16.65
2019-05-19T16:31:08.726Z,18.92
2019-05-19T16:36:32.487Z,13.58
2019-05-19T16:41:56.913Z,17.23
2019-05-19T16:47:22.003Z,13.20
2019-05-19T16:52:47.581Z,27.93
2019-05-19T16:58:20.553Z,15.32
2019-05-19T17:03:37.554Z,18.02
2019-05-19T17:09:02.121Z,16.65
2019-05-19T17:14:28.243Z,14.90
2019-05-19T17:19:52.745Z,15.95
2019-05-19T17:25:18.341Z,13.25
2019-05-19T17:30:42.869Z,15.48
2019-05-19T17:36:07.370Z,18.12
2019-05-19T17:41:32.953Z,14.05
2019-05-19T17:46:57.606Z,17.37
2019-05-19T17:52:22.137Z,14.93
2019-05-19T17:57:47.833Z,16.27
2019-05-19T18:03:12.679Z,15.60
2019-05-19T18:08:36.620Z,16.27
2019-05-19T18:14:01.281Z,19.55
2019-05-19T18:19:25.326Z,17.05
2019-05-19T18:24:49.192Z,15.83
2019-05-19T18:30:15.615Z,19.07
2019-05-19T18:35:39.483Z,19.65
2019-05-19T18:41:03.926Z,26.73
2019-05-19T18:46:28.689Z,19.98
2019-05-19T18:51:53.252Z,18.07
2019-05-19T18:57:18.028Z,15.30
2019-05-19T19:02:42.031Z,14.13
2019-05-19T19:08:05.918Z,14.33
2019-05-19T19:13:30.858Z,18.05
2019-05-19T19:18:55.500Z,15.38
2019-05-19T19:24:20.329Z,16.23
2019-05-19T19:29:44.990Z,15.23
2019-05-19T19:35:10.129Z,13.98
2019-05-19T19:40:34.742Z,15.05
2019-05-19T19:45:58.890Z,15.03
2019-05-19T19:51:23.609Z,13.20
2019-05-19T19:56:48.256Z,15.20
2019-05-19T20:02:12.166Z,17.20
2019-05-19T20:07:36.738Z,18.23
2019-05-19T20:13:01.101Z,14.80
2019-05-19T20:18:24.916Z,16.62
2019-05-19T20:23:48.544Z,15.78
2019-05-19T20:29:13.482Z,20.23
2019-05-19T20:34:38.183Z,20.50
2019-05-19T20:40:03.988Z,18.70
2019-05-19T20:45:28.564Z,21.73
2019-05-19T20:50:53.174Z,19.85
2019-05-19T20:56:17.057Z,21.95
2019-05-19T21:01:44.918Z,19.05
2019-05-19T21:07:07.872Z,20.82
2019-05-19T21:12:32.933Z,19.70
2019-05-19T21:17:56.624Z,20.37
2019-05-19T21:23:20.260Z,22.42
2019-05-19T21:28:44.698Z,20.05
2019-05-19T21:34:09.297Z,19.75
2019-05-19T21:39:33.902Z,20.50
2019-05-19T21:44:58.607Z,23.10
2019-05-19T21:50:23.355Z,19.32
2019-05-19T21:55:48.067Z,24.20
2019-05-19T22:01:22.935Z,22.27
2019-05-19T22:06:40.218Z,22.65
2019-05-19T22:12:04.302Z,22.30
2019-05-19T22:17:27.897Z,25.05
2019-05-19T22:22:52.859Z,23.20
2019-05-19T22:28:17.374Z,28.75
2019-05-19T22:33:41.167Z,23.95
2019-05-19T22:39:07.948Z,23.22
2019-05-19T22:44:32.389Z,30.10
2019-05-19T22:49:57.087Z,25.70
2019-05-19T22:55:21.871Z,27.55
2019-05-19T23:00:45.814Z,24.57
2019-05-19T23:06:09.977Z,26.95
2019-05-19T23:11:34.101Z,29.27
2019-05-19T23:16:57.815Z,33.92
2019-05-19T23:22:21.824Z,31.93
2019-05-19T23:27:46.575Z,30.63
2019-05-19T23:33:11.095Z,29.03
2019-05-19T23:38:35.621Z,32.40
2019-05-19T23:44:00.053Z,38.40
2019-05-19T23:49:24.427Z,34.57
2019-05-19T23:54:48.593Z,37.40
